Time;durP1;ratioP1;P1;durP2;ratioP2;P2;SDS_P1;SDS_P2;PMS_P1;PMS_P2;Temp;Humidity;BMP_temperature;BMP_pressure;BME280_temperature;BME280_humidity;BME280_pressure;Samples;Min_cycle;Max_cycle;Signal;HPM_P1;HPM_P2
2022/04/22 00:01:35;;;;;;;65.03;29.65;;;;;;;;;;4989617;28;20563;-66
2022/04/22 00:04:01;;;;;;;52.83;26.48;;;;;;;;;;4989963;28;20034;-66
2022/04/22 00:06:27;;;;;;;55.10;26.05;;;;;;;;;;4990397;28;20023;-66
2022/04/22 00:08:53;;;;;;;66.30;28.77;;;;;;;;;;4989932;28;20038;-66
2022/04/22 00:11:32;;;;;;;61.38;28.10;;;;;;;;;;4982114;28;20468;-66
2022/04/22 00:14:02;;;;;;;68.22;28.25;;;;;;;;;;4970705;28;20117;-66
2022/04/22 00:16:30;;;;;;;69.55;27.75;;;;;;;;;;4970773;28;20041;-66
2022/04/22 00:18:56;;;;;;;67.68;28.15;;;;;;;;;;4970724;28;20057;-66
2022/04/22 00:21:22;;;;;;;66.25;26.35;;;;;;;;;;4970459;28;20039;-66
2022/04/22 00:23:49;;;;;;;61.55;23.85;;;;;;;;;;4970070;28;20031;-66
2022/04/22 00:26:16;;;;;;;64.55;23.27;;;;;;;;;;4970555;28;20031;-66
2022/04/22 00:28:42;;;;;;;55.92;22.45;;;;;;;;;;4970759;28;20030;-66
2022/04/22 00:31:08;;;;;;;59.00;21.13;;;;;;;;;;4970413;28;20427;-66
2022/04/22 00:33:35;;;;;;;61.35;21.75;;;;;;;;;;4970507;28;20106;-66
2022/04/22 00:36:01;;;;;;;53.72;20.90;;;;;;;;;;4970467;28;20061;-66
2022/04/22 00:38:28;;;;;;;59.17;19.52;;;;;;;;;;4970304;28;20019;-66
2022/04/22 00:40:55;;;;;;;55.80;19.60;;;;;;;;;;4970515;28;20038;-66
2022/04/22 00:43:25;;;;;;;54.03;18.52;;;;;;;;;;4970437;28;20404;-66
2022/04/22 00:45:52;;;;;;;57.83;17.85;;;;;;;;;;4970251;28;20039;-66
2022/04/22 00:48:18;;;;;;;54.45;19.75;;;;;;;;;;4970357;28;20065;-66
2022/04/22 00:50:45;;;;;;;55.55;19.13;;;;;;;;;;4970320;28;20031;-66
2022/04/22 00:53:11;;;;;;;49.10;20.90;;;;;;;;;;4969701;28;20038;-66
2022/04/22 00:55:39;;;;;;;42.40;16.77;;;;;;;;;;4970291;28;20042;-66
2022/04/22 00:58:05;;;;;;;52.38;16.55;;;;;;;;;;4969674;28;20058;-66
2022/04/22 01:00:31;;;;;;;52.17;17.30;;;;;;;;;;4970620;28;20122;-66
2022/04/22 01:02:58;;;;;;;50.13;17.17;;;;;;;;;;4973455;28;20031;-66
2022/04/22 01:10:56;;;;;;;45.65;17.75;;;;;;;;;;4993088;28;20034;-66
2022/04/22 01:13:22;;;;;;;48.88;16.77;;;;;;;;;;4992610;28;20029;-66
2022/04/22 01:15:48;;;;;;;48.80;16.30;;;;;;;;;;4992960;28;20030;-66
2022/04/22 01:18:16;;;;;;;44.00;16.70;;;;;;;;;;4992674;28;20038;-66
2022/04/22 01:20:42;;;;;;;43.45;15.98;;;;;;;;;;4992355;28;20420;-66
2022/04/22 01:23:08;;;;;;;51.42;15.48;;;;;;;;;;4992734;28;20419;-66
2022/04/22 01:25:34;;;;;;;49.50;16.27;;;;;;;;;;4992679;28;20480;-66
2022/04/22 01:28:01;;;;;;;43.42;14.95;;;;;;;;;;4992409;28;20049;-66
2022/04/22 01:30:27;;;;;;;56.92;18.90;;;;;;;;;;4992592;28;20034;-66
2022/04/22 01:32:54;;;;;;;42.40;14.98;;;;;;;;;;4992580;28;20027;-66
2022/04/22 01:35:21;;;;;;;43.88;15.65;;;;;;;;;;4992187;28;20060;-65
2022/04/22 01:37:47;;;;;;;49.05;15.38;;;;;;;;;;4992622;28;20035;-65
2022/04/22 01:40:14;;;;;;;43.60;16.98;;;;;;;;;;4992345;28;20035;-65
2022/04/22 01:42:40;;;;;;;50.63;18.83;;;;;;;;;;4992565;28;20022;-66
2022/04/22 01:45:07;;;;;;;43.97;16.45;;;;;;;;;;4992158;28;20526;-66
2022/04/22 01:47:33;;;;;;;42.67;15.60;;;;;;;;;;4992334;28;20498;-65
2022/04/22 01:50:00;;;;;;;44.30;15.00;;;;;;;;;;4991905;28;20082;-66
2022/04/22 01:52:26;;;;;;;45.45;15.65;;;;;;;;;;4992298;28;20034;-66
2022/04/22 01:54:54;;;;;;;49.10;16.52;;;;;;;;;;4983795;28;20031;-66
2022/04/22 01:57:20;;;;;;;48.67;15.30;;;;;;;;;;4984069;28;20042;-66
2022/04/22 01:59:48;;;;;;;41.22;14.80;;;;;;;;;;4992180;28;20030;-66
2022/04/22 02:02:15;;;;;;;50.45;15.38;;;;;;;;;;4990841;28;20030;-65
2022/04/22 02:04:42;;;;;;;48.90;15.18;;;;;;;;;;4991723;28;20122;-66
2022/04/22 02:07:08;;;;;;;42.10;14.77;;;;;;;;;;5006765;28;20031;-66
2022/04/22 02:09:34;;;;;;;43.45;14.25;;;;;;;;;;4988753;28;20460;-66
2022/04/22 02:12:00;;;;;;;53.88;18.08;;;;;;;;;;4972259;28;20034;-66
2022/04/22 02:14:26;;;;;;;42.20;14.43;;;;;;;;;;4972674;28;20118;-66
2022/04/22 02:16:53;;;;;;;42.97;14.77;;;;;;;;;;4973257;28;20125;-65
2022/04/22 02:19:20;;;;;;;38.38;14.60;;;;;;;;;;4972447;28;20035;-66
2022/04/22 02:21:46;;;;;;;30.45;14.10;;;;;;;;;;4973047;28;20027;-66
2022/04/22 02:24:12;;;;;;;39.83;14.30;;;;;;;;;;4972688;28;20035;-66
2022/04/22 02:29:23;;;;;;;31.17;14.00;;;;;;;;;;4972859;28;20579;-66
2022/04/22 02:31:53;;;;;;;35.15;13.80;;;;;;;;;;4972900;28;20068;-65
2022/04/22 02:34:25;;;;;;;41.88;13.90;;;;;;;;;;4972429;28;20030;-66
2022/04/22 02:36:51;;;;;;;37.28;13.95;;;;;;;;;;4990986;28;20030;-66
2022/04/22 02:39:18;;;;;;;37.47;13.10;;;;;;;;;;4992000;28;20049;-66
2022/04/22 02:47:14;;;;;;;29.45;12.85;;;;;;;;;;4972119;28;20062;-66
2022/04/22 02:49:44;;;;;;;37.97;13.75;;;;;;;;;;4972623;28;20054;-66
2022/04/22 02:52:13;;;;;;;40.22;13.80;;;;;;;;;;4972440;28;20046;-66
2022/04/22 02:54:40;;;;;;;34.85;12.65;;;;;;;;;;4981189;28;20096;-66
2022/04/22 02:57:06;;;;;;;48.55;14.15;;;;;;;;;;4998430;28;20059;-66
2022/04/22 02:59:32;;;;;;;36.42;12.73;;;;;;;;;;5073799;28;20086;-66
2022/04/22 03:01:59;;;;;;;39.45;13.82;;;;;;;;;;5073607;28;20398;-66
2022/04/22 03:04:28;;;;;;;36.33;12.57;;;;;;;;;;5020999;28;20027;-66
2022/04/22 03:06:55;;;;;;;37.95;13.48;;;;;;;;;;4972363;28;20034;-66
2022/04/22 03:09:22;;;;;;;36.00;12.38;;;;;;;;;;4971944;28;20019;-66
2022/04/22 03:11:48;;;;;;;35.22;12.85;;;;;;;;;;4972383;28;20097;-66
2022/04/22 03:14:14;;;;;;;45.38;13.52;;;;;;;;;;4972280;28;20041;-66
2022/04/22 03:16:40;;;;;;;37.63;13.02;;;;;;;;;;4971797;28;20052;-66
2022/04/22 03:19:07;;;;;;;35.00;14.18;;;;;;;;;;4975191;28;20043;-66
2022/04/22 03:21:34;;;;;;;36.08;14.05;;;;;;;;;;4985583;28;20085;-66
2022/04/22 03:24:00;;;;;;;47.20;14.80;;;;;;;;;;4973178;28;20496;-66
2022/04/22 03:26:26;;;;;;;44.45;13.57;;;;;;;;;;4990433;28;20429;-66
2022/04/22 03:28:52;;;;;;;39.80;12.98;;;;;;;;;;4990739;28;20026;-66
2022/04/22 03:31:19;;;;;;;43.13;16.05;;;;;;;;;;4986428;28;20056;-66
2022/04/22 03:33:45;;;;;;;48.67;13.35;;;;;;;;;;4972073;28;20031;-66
2022/04/22 03:36:14;;;;;;;46.20;14.70;;;;;;;;;;4975643;28;20019;-67
2022/04/22 03:38:40;;;;;;;47.63;14.98;;;;;;;;;;4991201;28;20030;-67
2022/04/22 03:41:06;;;;;;;53.20;14.00;;;;;;;;;;4982287;28;20535;-68
2022/04/22 03:43:32;;;;;;;40.70;14.32;;;;;;;;;;4971669;28;20033;-67
2022/04/22 03:45:59;;;;;;;56.22;15.93;;;;;;;;;;4971209;28;20366;-67
2022/04/22 03:48:25;;;;;;;40.03;13.27;;;;;;;;;;4971420;28;20047;-67
2022/04/22 03:50:51;;;;;;;38.25;12.70;;;;;;;;;;4981384;28;20359;-68
2022/04/22 03:53:17;;;;;;;36.38;15.23;;;;;;;;;;4978606;28;20105;-67
2022/04/22 03:55:44;;;;;;;41.42;13.90;;;;;;;;;;4973600;28;20057;-68
2022/04/22 03:58:11;;;;;;;32.33;13.60;;;;;;;;;;5001245;28;20396;-67
2022/04/22 04:00:42;;;;;;;34.38;13.65;;;;;;;;;;4984883;28;20054;-70
2022/04/22 04:03:09;;;;;;;33.90;13.70;;;;;;;;;;4983092;28;20475;-68
2022/04/22 04:05:36;;;;;;;41.50;15.57;;;;;;;;;;4975814;28;20024;-68
2022/04/22 04:08:02;;;;;;;44.67;13.93;;;;;;;;;;4981561;28;20031;-67
2022/04/22 04:15:57;;;;;;;37.65;13.50;;;;;;;;;;4973205;28;20556;-67
2022/04/22 04:18:24;;;;;;;33.90;13.40;;;;;;;;;;4989509;28;20022;-67
2022/04/22 04:23:35;;;;;;;39.55;13.57;;;;;;;;;;4990376;28;20041;-67
2022/04/22 04:26:01;;;;;;;51.58;15.75;;;;;;;;;;4990079;28;20042;-67
2022/04/22 04:28:32;;;;;;;65.25;15.88;;;;;;;;;;4989392;28;20103;-67
2022/04/22 04:30:59;;;;;;;56.90;17.35;;;;;;;;;;4989172;28;20034;-67
2022/04/22 04:33:25;;;;;;;54.92;17.40;;;;;;;;;;4989734;28;20017;-67
2022/04/22 04:35:51;;;;;;;51.50;16.48;;;;;;;;;;4989598;28;20030;-67
2022/04/22 04:38:17;;;;;;;41.75;14.48;;;;;;;;;;4979318;28;20031;-67
2022/04/22 04:40:46;;;;;;;43.80;14.73;;;;;;;;;;4992433;28;20553;-67
2022/04/22 04:43:13;;;;;;;36.45;13.95;;;;;;;;;;4992938;28;20026;-67
2022/04/22 04:45:39;;;;;;;39.78;13.75;;;;;;;;;;4979160;28;20038;-67
2022/04/22 04:48:05;;;;;;;43.53;16.38;;;;;;;;;;4973873;28;20019;-67
2022/04/22 04:50:32;;;;;;;40.50;14.45;;;;;;;;;;5021749;28;20016;-67
2022/04/22 04:52:58;;;;;;;35.13;14.70;;;;;;;;;;4978359;28;20219;-67
2022/04/22 04:55:24;;;;;;;42.20;13.80;;;;;;;;;;4985410;28;20042;-67
2022/04/22 04:57:50;;;;;;;31.52;13.73;;;;;;;;;;4984755;28;20136;-67
2022/04/22 05:00:18;;;;;;;33.67;12.73;;;;;;;;;;4978831;28;20039;-67
2022/04/22 05:02:44;;;;;;;43.38;14.10;;;;;;;;;;4989689;28;20030;-67
2022/04/22 05:05:11;;;;;;;51.38;15.10;;;;;;;;;;4989843;28;20030;-67
2022/04/22 05:07:47;;;;;;;40.55;15.15;;;;;;;;;;4984317;28;20015;-67
2022/04/22 05:10:14;;;;;;;53.05;15.98;;;;;;;;;;4978761;28;20088;-67
2022/04/22 05:12:40;;;;;;;52.35;16.85;;;;;;;;;;4989317;28;20033;-67
2022/04/22 05:15:08;;;;;;;48.22;15.75;;;;;;;;;;4980931;28;20037;-67
2022/04/22 05:17:34;;;;;;;46.60;16.90;;;;;;;;;;4982443;28;20036;-67
2022/04/22 05:20:00;;;;;;;50.10;15.38;;;;;;;;;;4980667;28;20030;-67
2022/04/22 05:22:26;;;;;;;55.97;16.80;;;;;;;;;;4989298;28;20715;-67
2022/04/22 05:24:53;;;;;;;53.92;15.63;;;;;;;;;;4992466;28;20034;-67
2022/04/22 05:27:19;;;;;;;52.92;15.25;;;;;;;;;;4986097;28;20032;-67
2022/04/22 05:32:38;;;;;;;47.72;16.00;;;;;;;;;;4986113;28;20034;-67
2022/04/22 05:35:06;;;;;;;55.83;16.17;;;;;;;;;;5012986;28;20026;-67
2022/04/22 05:37:48;;;;;;;60.95;16.02;;;;;;;;;;4996693;28;20022;-67
2022/04/22 05:40:16;;;;;;;43.78;15.48;;;;;;;;;;4980131;28;20035;-67
2022/04/22 05:42:43;;;;;;;61.45;15.82;;;;;;;;;;4977593;28;20565;-67
2022/04/22 05:45:09;;;;;;;57.83;16.83;;;;;;;;;;4976673;28;20038;-67
2022/04/22 05:47:36;;;;;;;48.88;14.25;;;;;;;;;;4978569;28;20023;-67
2022/04/22 05:50:04;;;;;;;55.17;15.05;;;;;;;;;;4984839;28;20049;-67
2022/04/22 05:52:32;;;;;;;42.65;15.07;;;;;;;;;;4983245;28;20102;-67
2022/04/22 05:55:02;;;;;;;41.00;13.38;;;;;;;;;;4976388;28;20031;-67
2022/04/22 05:57:28;;;;;;;39.50;12.93;;;;;;;;;;4983734;28;20104;-67
2022/04/22 05:59:54;;;;;;;44.40;14.35;;;;;;;;;;4986217;28;20044;-67
2022/04/22 06:02:21;;;;;;;40.15;13.45;;;;;;;;;;4988877;28;20034;-67
2022/04/22 06:04:47;;;;;;;54.72;16.33;;;;;;;;;;4994976;28;20530;-67
2022/04/22 06:07:13;;;;;;;52.20;15.35;;;;;;;;;;4986690;28;20438;-67
2022/04/22 06:12:24;;;;;;;39.90;14.63;;;;;;;;;;4999593;28;20033;-66
2022/04/22 06:14:50;;;;;;;49.00;15.02;;;;;;;;;;4989042;28;20367;-66
2022/04/22 06:17:16;;;;;;;56.88;16.70;;;;;;;;;;4983921;28;20027;-67
2022/04/22 06:19:42;;;;;;;57.22;16.67;;;;;;;;;;4986274;28;20105;-67
2022/04/22 06:22:09;;;;;;;51.85;17.55;;;;;;;;;;4985100;28;20526;-66
2022/04/22 06:24:35;;;;;;;55.58;16.40;;;;;;;;;;4986286;28;20583;-67
2022/04/22 06:27:01;;;;;;;49.00;15.18;;;;;;;;;;4986660;28;20022;-67
2022/04/22 06:29:28;;;;;;;67.53;16.45;;;;;;;;;;4981562;28;20034;-68
2022/04/22 06:31:54;;;;;;;58.13;16.27;;;;;;;;;;4988064;28;20526;-67
2022/04/22 06:34:20;;;;;;;67.35;16.88;;;;;;;;;;4984979;28;20030;-67
2022/04/22 06:36:47;;;;;;;55.05;16.67;;;;;;;;;;4992953;28;20497;-66
2022/04/22 06:39:13;;;;;;;54.50;17.02;;;;;;;;;;4973331;28;20027;-67
2022/04/22 06:47:10;;;;;;;62.50;18.05;;;;;;;;;;4972172;28;20506;-66
2022/04/22 06:49:36;;;;;;;61.30;17.92;;;;;;;;;;4983613;28;20539;-66
2022/04/22 06:52:03;;;;;;;49.53;18.58;;;;;;;;;;4980893;28;20034;-66
2022/04/22 06:54:29;;;;;;;72.75;19.83;;;;;;;;;;4978091;28;20017;-67
2022/04/22 06:56:56;;;;;;;69.35;19.73;;;;;;;;;;4979396;28;20039;-66
2022/04/22 06:59:23;;;;;;;58.63;18.45;;;;;;;;;;4978943;28;20172;-66
2022/04/22 07:01:49;;;;;;;66.85;19.85;;;;;;;;;;4981071;28;20518;-66
2022/04/22 07:04:16;;;;;;;59.70;18.40;;;;;;;;;;4979086;28;20069;-66
2022/04/22 07:06:42;;;;;;;72.80;18.08;;;;;;;;;;4971699;28;20487;-66
2022/04/22 07:09:10;;;;;;;61.95;19.33;;;;;;;;;;4974090;28;20023;-66
2022/04/22 07:11:37;;;;;;;51.88;18.90;;;;;;;;;;4971451;28;20019;-66
2022/04/22 07:14:04;;;;;;;65.10;18.30;;;;;;;;;;4971190;28;20031;-66
2022/04/22 07:16:30;;;;;;;68.43;19.92;;;;;;;;;;4979016;28;20130;-66
2022/04/22 07:18:57;;;;;;;66.30;20.95;;;;;;;;;;4973859;28;20045;-66
2022/04/22 07:21:23;;;;;;;67.47;18.92;;;;;;;;;;4977343;28;20505;-66
2022/04/22 07:23:50;;;;;;;68.80;22.13;;;;;;;;;;4981158;28;20037;-66
2022/04/22 07:26:17;;;;;;;70.78;20.50;;;;;;;;;;4979047;28;20027;-67
2022/04/22 07:28:46;;;;;;;71.22;20.98;;;;;;;;;;4977756;28;20541;-66
2022/04/22 07:31:12;;;;;;;63.20;19.58;;;;;;;;;;4978932;28;20058;-66
2022/04/22 07:33:38;;;;;;;58.72;19.27;;;;;;;;;;4980808;28;20102;-66
2022/04/22 07:36:04;;;;;;;78.32;22.25;;;;;;;;;;4982807;28;20483;-66
2022/04/22 07:38:31;;;;;;;64.32;20.67;;;;;;;;;;4978571;28;20476;-66
2022/04/22 07:40:57;;;;;;;55.00;20.27;;;;;;;;;;4978305;28;20109;-66
2022/04/22 07:48:55;;;;;;;57.70;20.60;;;;;;;;;;4981061;28;20035;-67
2022/04/22 07:51:23;;;;;;;66.55;21.25;;;;;;;;;;4980326;28;20046;-66
2022/04/22 07:53:49;;;;;;;61.45;21.52;;;;;;;;;;4978872;28;20105;-66
2022/04/22 07:56:15;;;;;;;66.40;23.45;;;;;;;;;;4979465;28;20050;-66
2022/04/22 07:58:41;;;;;;;65.43;22.98;;;;;;;;;;4975027;28;20558;-66
2022/04/22 08:01:08;;;;;;;61.70;21.73;;;;;;;;;;4978369;28;20110;-67
2022/04/22 08:03:36;;;;;;;61.75;21.60;;;;;;;;;;4979437;28;20155;-67
2022/04/22 08:06:02;;;;;;;78.93;24.05;;;;;;;;;;4978809;28;20076;-66
2022/04/22 08:08:30;;;;;;;70.38;23.05;;;;;;;;;;4979311;28;20455;-67
2022/04/22 08:10:57;;;;;;;65.25;22.20;;;;;;;;;;4977972;28;20061;-66
2022/04/22 08:13:27;;;;;;;51.72;22.85;;;;;;;;;;4977975;28;20065;-66
2022/04/22 08:15:53;;;;;;;60.38;23.15;;;;;;;;;;4978091;28;20446;-66
2022/04/22 08:18:19;;;;;;;59.20;23.10;;;;;;;;;;4979875;28;20026;-66
2022/04/22 08:20:46;;;;;;;60.08;23.77;;;;;;;;;;4977039;28;20030;-66
2022/04/22 08:23:12;;;;;;;68.13;23.48;;;;;;;;;;4977607;28;20047;-67
2022/04/22 08:25:38;;;;;;;59.33;22.63;;;;;;;;;;4978053;28;20054;-66
2022/04/22 08:28:04;;;;;;;68.30;23.88;;;;;;;;;;4977068;28;20015;-66
2022/04/22 08:30:30;;;;;;;70.53;22.92;;;;;;;;;;4978237;28;20010;-67
2022/04/22 08:32:57;;;;;;;63.75;22.90;;;;;;;;;;4979371;28;20093;-67
2022/04/22 08:35:23;;;;;;;63.65;22.15;;;;;;;;;;4977892;28;20030;-66
2022/04/22 08:37:50;;;;;;;60.22;20.98;;;;;;;;;;4978466;28;20109;-67
2022/04/22 08:40:16;;;;;;;59.70;21.30;;;;;;;;;;4979500;28;20028;-67
2022/04/22 08:42:44;;;;;;;58.58;21.98;;;;;;;;;;4976363;28;20433;-66
2022/04/22 08:45:10;;;;;;;58.95;20.48;;;;;;;;;;4978685;28;20035;-67
2022/04/22 08:50:22;;;;;;;53.88;20.08;;;;;;;;;;4980089;28;20061;-66
2022/04/22 08:52:58;;;;;;;47.35;19.10;;;;;;;;;;4977611;28;20103;-66
2022/04/22 08:55:26;;;;;;;49.15;19.23;;;;;;;;;;4975691;28;20027;-67
2022/04/22 08:57:54;;;;;;;40.50;18.25;;;;;;;;;;4978232;28;20050;-67
2022/04/22 09:00:23;;;;;;;57.05;18.77;;;;;;;;;;4990818;28;20105;-66
2022/04/22 09:02:55;;;;;;;49.40;18.52;;;;;;;;;;4975905;28;20034;-67
2022/04/22 09:05:21;;;;;;;48.80;18.90;;;;;;;;;;4977198;28;20477;-67
2022/04/22 09:07:47;;;;;;;42.88;17.58;;;;;;;;;;4976836;28;20023;-66
2022/04/22 09:10:14;;;;;;;47.83;20.35;;;;;;;;;;4978584;28;20047;-67
2022/04/22 09:12:43;;;;;;;49.00;20.50;;;;;;;;;;4978622;28;20022;-67
2022/04/22 09:15:10;;;;;;;50.28;20.33;;;;;;;;;;4979360;28;20030;-67
2022/04/22 09:17:37;;;;;;;48.88;19.23;;;;;;;;;;4976752;28;20023;-67
2022/04/22 09:20:05;;;;;;;49.58;19.58;;;;;;;;;;4977478;28;20043;-66
2022/04/22 09:22:34;;;;;;;51.58;21.05;;;;;;;;;;4981226;28;20029;-67
2022/04/22 09:25:01;;;;;;;51.35;21.13;;;;;;;;;;4982731;28;20050;-67
2022/04/22 09:27:35;;;;;;;63.22;19.60;;;;;;;;;;4978277;28;20050;-67
2022/04/22 09:30:02;;;;;;;57.25;21.50;;;;;;;;;;4980071;28;20081;-67
2022/04/22 09:32:29;;;;;;;55.88;20.65;;;;;;;;;;4982034;28;20033;-66
2022/04/22 09:35:06;;;;;;;48.50;20.20;;;;;;;;;;4981741;28;20124;-67
2022/04/22 09:43:17;;;;;;;49.05;20.63;;;;;;;;;;5001867;28;20046;-66
2022/04/22 09:45:43;;;;;;;54.15;21.75;;;;;;;;;;4982256;28;20109;-67
2022/04/22 09:48:13;;;;;;;54.72;20.75;;;;;;;;;;4975122;28;20496;-67
2022/04/22 09:50:40;;;;;;;50.60;21.65;;;;;;;;;;4975619;28;20148;-67
2022/04/22 09:53:10;;;;;;;53.22;21.67;;;;;;;;;;4979005;28;20041;-67
2022/04/22 09:55:46;;;;;;;55.00;20.73;;;;;;;;;;4978897;28;20031;-67
2022/04/22 09:58:12;;;;;;;54.60;20.38;;;;;;;;;;4983965;28;20046;-67
2022/04/22 10:00:39;;;;;;;60.50;21.08;;;;;;;;;;4991044;28;20487;-66
2022/04/22 10:03:07;;;;;;;59.58;20.88;;;;;;;;;;4972023;28;20046;-67
2022/04/22 10:05:34;;;;;;;48.92;22.40;;;;;;;;;;4971707;28;20070;-67
2022/04/22 10:08:03;;;;;;;47.83;20.60;;;;;;;;;;4974138;28;20025;-66
2022/04/22 10:10:36;;;;;;;50.47;21.10;;;;;;;;;;4978901;28;20071;-66
2022/04/22 10:13:04;;;;;;;46.55;18.20;;;;;;;;;;4979314;28;20032;-66
2022/04/22 10:15:32;;;;;;;69.85;21.63;;;;;;;;;;4976891;28;20098;-66
2022/04/22 10:17:59;;;;;;;57.30;21.02;;;;;;;;;;4987047;28;20031;-67
2022/04/22 10:20:26;;;;;;;64.72;22.08;;;;;;;;;;4979289;28;20044;-67
2022/04/22 10:22:53;;;;;;;51.70;22.20;;;;;;;;;;4980560;28;20027;-67
2022/04/22 10:25:19;;;;;;;58.38;22.65;;;;;;;;;;4977865;28;20471;-70
2022/04/22 10:27:46;;;;;;;56.50;21.95;;;;;;;;;;4974154;28;20452;-67
2022/04/22 10:30:14;;;;;;;66.38;23.05;;;;;;;;;;4974831;28;20400;-67
2022/04/22 10:32:41;;;;;;;50.85;22.95;;;;;;;;;;4975788;28;20034;-67
2022/04/22 10:35:07;;;;;;;58.88;23.17;;;;;;;;;;4974451;28;20042;-67
2022/04/22 10:37:34;;;;;;;58.40;25.38;;;;;;;;;;4983503;28;20041;-67
2022/04/22 10:40:02;;;;;;;51.03;22.92;;;;;;;;;;4969532;28;20460;-67
2022/04/22 10:42:35;;;;;;;64.25;24.13;;;;;;;;;;4972403;28;20030;-67
2022/04/22 10:47:55;;;;;;;58.75;24.10;;;;;;;;;;4974883;28;20030;-67
2022/04/22 10:50:28;;;;;;;53.05;21.35;;;;;;;;;;4969333;28;20488;-67
2022/04/22 10:53:23;;;;;;;51.50;22.65;;;;;;;;;;4974358;28;20059;-67
2022/04/22 10:55:50;;;;;;;57.13;24.77;;;;;;;;;;4986910;28;20455;-67
2022/04/22 10:58:16;;;;;;;50.00;22.63;;;;;;;;;;4986688;28;20034;-67
2022/04/22 11:00:46;;;;;;;49.95;23.35;;;;;;;;;;4978979;28;20031;-67
2022/04/22 11:03:16;;;;;;;49.85;23.17;;;;;;;;;;4985476;28;20090;-67
2022/04/22 11:05:48;;;;;;;53.38;23.02;;;;;;;;;;4987283;28;20492;-67
2022/04/22 11:08:18;;;;;;;52.53;24.83;;;;;;;;;;4987848;28;20076;-67
2022/04/22 11:10:48;;;;;;;59.22;26.20;;;;;;;;;;4984997;28;20038;-67
2022/04/22 11:13:33;;;;;;;59.47;24.45;;;;;;;;;;4986675;28;20057;-67
2022/04/22 11:16:00;;;;;;;52.88;22.45;;;;;;;;;;4985174;28;20057;-67
2022/04/22 11:18:27;;;;;;;50.78;21.98;;;;;;;;;;4988084;28;20109;-67
2022/04/22 11:20:59;;;;;;;47.13;22.08;;;;;;;;;;4988006;28;20030;-67
2022/04/22 11:23:33;;;;;;;42.72;20.17;;;;;;;;;;4987401;28;20064;-67
2022/04/22 11:26:00;;;;;;;43.30;20.48;;;;;;;;;;4987405;28;20501;-67
2022/04/22 11:28:27;;;;;;;66.55;24.73;;;;;;;;;;4987116;28;20033;-67
2022/04/22 11:30:54;;;;;;;49.80;22.50;;;;;;;;;;4980223;28;20056;-67
2022/04/22 11:33:21;;;;;;;43.72;20.38;;;;;;;;;;4985408;28;20030;-67
2022/04/22 11:35:56;;;;;;;37.58;19.75;;;;;;;;;;4986147;28;20519;-67
2022/04/22 11:38:22;;;;;;;52.22;21.42;;;;;;;;;;4987600;28;20351;-67
2022/04/22 11:40:52;;;;;;;49.42;20.58;;;;;;;;;;4987260;28;20036;-67
2022/04/22 11:43:18;;;;;;;46.60;19.63;;;;;;;;;;4987289;28;20026;-67
2022/04/22 11:45:45;;;;;;;43.40;20.23;;;;;;;;;;4986794;28;20109;-67
2022/04/22 11:48:18;;;;;;;43.78;21.95;;;;;;;;;;4987847;28;20030;-67
2022/04/22 11:50:45;;;;;;;41.67;19.65;;;;;;;;;;4978606;28;20025;-67
2022/04/22 11:53:22;;;;;;;41.38;19.55;;;;;;;;;;4970339;28;20025;-67
2022/04/22 11:55:49;;;;;;;44.72;20.85;;;;;;;;;;4971098;28;20461;-67
2022/04/22 11:58:27;;;;;;;43.15;21.23;;;;;;;;;;4968338;28;20496;-67
2022/04/22 12:06:24;;;;;;;39.22;19.45;;;;;;;;;;4984961;28;20042;-67
2022/04/22 12:08:50;;;;;;;53.22;20.92;;;;;;;;;;4970304;28;20097;-67
2022/04/22 12:11:16;;;;;;;46.42;22.40;;;;;;;;;;4970969;28;20488;-67
2022/04/22 12:13:42;;;;;;;42.50;21.33;;;;;;;;;;4970051;28;20031;-67
2022/04/22 12:16:08;;;;;;;44.80;21.27;;;;;;;;;;4968270;28;20525;-67
2022/04/22 12:18:35;;;;;;;45.97;19.77;;;;;;;;;;4971420;28;20103;-67
2022/04/22 12:21:02;;;;;;;41.42;21.52;;;;;;;;;;4968314;28;20591;-67
2022/04/22 12:23:35;;;;;;;49.47;21.05;;;;;;;;;;4969116;28;20080;-67
2022/04/22 12:26:01;;;;;;;44.08;19.35;;;;;;;;;;4968011;28;20053;-67
2022/04/22 12:28:28;;;;;;;40.05;20.73;;;;;;;;;;4968144;28;20088;-67
2022/04/22 12:30:54;;;;;;;48.60;20.67;;;;;;;;;;4969270;28;20030;-67
2022/04/22 12:33:23;;;;;;;39.38;20.63;;;;;;;;;;4969254;28;20027;-67
2022/04/22 12:35:49;;;;;;;44.33;19.85;;;;;;;;;;4970287;28;20062;-67
2022/04/22 12:38:17;;;;;;;46.15;21.15;;;;;;;;;;4968712;28;20030;-67
2022/04/22 12:40:47;;;;;;;42.97;20.45;;;;;;;;;;4967657;28;20053;-67
2022/04/22 12:43:27;;;;;;;38.22;20.33;;;;;;;;;;4968468;28;20054;-67
2022/04/22 12:52:14;;;;;;;47.05;21.67;;;;;;;;;;4979762;28;20027;-67
2022/04/22 12:54:42;;;;;;;39.83;21.63;;;;;;;;;;4970388;28;20023;-67
2022/04/22 12:57:11;;;;;;;43.15;20.80;;;;;;;;;;4970857;28;20133;-67
2022/04/22 12:59:41;;;;;;;39.53;18.73;;;;;;;;;;4988696;28;20140;-67
2022/04/22 13:02:08;;;;;;;37.00;19.92;;;;;;;;;;4990989;28;20081;-67
2022/04/22 13:04:49;;;;;;;43.15;20.67;;;;;;;;;;4983963;28;20035;-67
2022/04/22 13:07:15;;;;;;;36.47;17.50;;;;;;;;;;4986042;28;20025;-67
2022/04/22 13:09:41;;;;;;;39.47;17.55;;;;;;;;;;4972856;28;20387;-67
2022/04/22 13:12:07;;;;;;;37.45;19.23;;;;;;;;;;4973875;28;20030;-67
2022/04/22 13:14:34;;;;;;;37.88;18.95;;;;;;;;;;4987749;28;20555;-67
2022/04/22 13:17:01;;;;;;;36.45;17.75;;;;;;;;;;4980645;28;20077;-67
2022/04/22 13:19:27;;;;;;;35.25;19.10;;;;;;;;;;4971377;28;20068;-67
2022/04/22 13:21:53;;;;;;;35.80;17.90;;;;;;;;;;4972761;28;20503;-67
2022/04/22 13:24:20;;;;;;;38.60;19.10;;;;;;;;;;4973758;28;20022;-67
2022/04/22 13:26:47;;;;;;;33.72;16.88;;;;;;;;;;4971700;28;20039;-67
2022/04/22 13:29:13;;;;;;;29.92;16.35;;;;;;;;;;4973412;28;20027;-67
2022/04/22 13:31:39;;;;;;;35.38;15.32;;;;;;;;;;4971620;28;20058;-67
2022/04/22 13:34:05;;;;;;;29.30;15.63;;;;;;;;;;4974432;28;20088;-67
2022/04/22 13:36:35;;;;;;;28.63;14.98;;;;;;;;;;4981912;28;20202;-67
2022/04/22 13:39:01;;;;;;;26.80;15.60;;;;;;;;;;4980025;28;20023;-67
2022/04/22 13:41:27;;;;;;;28.80;16.13;;;;;;;;;;4975414;28;20488;-67
2022/04/22 13:43:53;;;;;;;30.83;14.95;;;;;;;;;;4979025;28;20027;-67
2022/04/22 13:54:27;;;;;;;35.00;17.27;;;;;;;;;;4982115;28;20408;-72
2022/04/22 13:56:53;;;;;;;28.27;15.88;;;;;;;;;;4993470;28;20051;-70
2022/04/22 13:59:20;;;;;;;39.35;17.17;;;;;;;;;;4987815;28;20069;-68
2022/04/22 14:01:46;;;;;;;34.17;17.27;;;;;;;;;;4977244;28;20031;-64
2022/04/22 14:04:12;;;;;;;25.33;15.93;;;;;;;;;;4975821;28;20026;-66
2022/04/22 14:06:38;;;;;;;32.70;17.17;;;;;;;;;;4980564;28;20034;-64
2022/04/22 14:09:05;;;;;;;26.30;16.67;;;;;;;;;;4983581;28;20079;-69
2022/04/22 14:11:31;;;;;;;32.25;17.20;;;;;;;;;;4986560;28;20054;-65
2022/04/22 14:13:57;;;;;;;32.40;17.50;;;;;;;;;;4995934;28;20026;-76
2022/04/22 14:16:24;;;;;;;31.40;17.33;;;;;;;;;;4975908;28;20026;-65
2022/04/22 14:18:51;;;;;;;35.47;16.08;;;;;;;;;;4981994;28;20088;-65
2022/04/22 14:21:17;;;;;;;26.35;15.88;;;;;;;;;;4982361;28;20030;-71
2022/04/22 14:23:43;;;;;;;27.27;15.32;;;;;;;;;;4980871;28;20118;-73
2022/04/22 14:26:12;;;;;;;31.23;15.25;;;;;;;;;;4982087;28;20032;-75
2022/04/22 14:28:38;;;;;;;27.33;14.70;;;;;;;;;;4982489;28;20076;-64
2022/04/22 14:31:06;;;;;;;24.98;13.73;;;;;;;;;;4979647;28;20435;-64
2022/04/22 14:33:32;;;;;;;26.10;13.02;;;;;;;;;;4982255;28;20030;-65
2022/04/22 14:35:58;;;;;;;28.25;14.05;;;;;;;;;;4980785;28;20031;-76
2022/04/22 14:38:25;;;;;;;26.20;13.27;;;;;;;;;;4988903;28;20022;-72
2022/04/22 14:40:51;;;;;;;23.35;12.82;;;;;;;;;;4982086;28;20464;-64
2022/04/22 14:43:18;;;;;;;26.95;12.98;;;;;;;;;;4990226;28;20403;-77
2022/04/22 14:45:44;;;;;;;28.60;13.95;;;;;;;;;;4982500;28;20031;-64
2022/04/22 14:48:10;;;;;;;33.47;13.82;;;;;;;;;;4977920;28;20022;-70
2022/04/22 14:50:36;;;;;;;22.90;12.75;;;;;;;;;;4976957;28;20488;-76
2022/04/22 14:53:02;;;;;;;22.10;13.23;;;;;;;;;;4982038;28;20511;-71
2022/04/22 14:55:28;;;;;;;21.65;13.30;;;;;;;;;;4970982;28;20468;-65
2022/04/22 14:57:55;;;;;;;26.83;13.27;;;;;;;;;;4970543;28;20084;-75
2022/04/22 15:00:21;;;;;;;28.42;13.05;;;;;;;;;;4971124;28;20035;-62
2022/04/22 15:02:47;;;;;;;23.95;13.70;;;;;;;;;;4978741;28;20049;-65
2022/04/22 15:05:13;;;;;;;24.00;12.95;;;;;;;;;;4984949;28;20034;-68
2022/04/22 15:07:40;;;;;;;27.27;14.00;;;;;;;;;;4981212;28;20080;-71
2022/04/22 15:10:06;;;;;;;27.08;13.13;;;;;;;;;;4982598;28;20504;-70
2022/04/22 15:12:32;;;;;;;24.45;12.85;;;;;;;;;;4985077;28;20030;-73
2022/04/22 15:14:58;;;;;;;28.10;13.07;;;;;;;;;;4970772;28;20035;-65
2022/04/22 15:25:40;;;;;;;19.35;11.15;;;;;;;;;;4981643;28;20058;-80
2022/04/22 15:28:06;;;;;;;23.55;12.13;;;;;;;;;;4987757;28;20023;-67
2022/04/22 15:30:51;;;;;;;25.63;11.95;;;;;;;;;;4989462;28;20107;-64
2022/04/22 15:33:17;;;;;;;22.85;12.10;;;;;;;;;;4989555;28;20034;-66
2022/04/22 15:35:43;;;;;;;23.85;11.55;;;;;;;;;;4979605;28;20034;-67